• Join FlightAware (Why Join?)
  • Login
  • US Flag 
06:59AM EDT


 

Airport Tracker/Info


-or-


 

Live Flight TrackerFlight Track Log ✈ N163CA ✈ 20-May-2013 ✈ KLAL - KSFB

Flight Track Log - Related Links

Times and Time Zones

All times are in EDT time to prevent confusion due to time zone crossing. See the N163CA flight status page for this flight to view local times or setup timezone preferences in your user account.

Time Position Orientation Groundspeed Altitude Reporting Facility
EDT Latitude Longitude Course Direction KTS MPH feet Rate Location/Type
11:27PM 27.7500 -82.1500 41° Northeast 149 171 3,500  Level Tampa TRACON
11:28PM 27.7833 -82.1333 24° Northeast 151 174 3,400 -60 Descending Tampa TRACON
11:29PM 27.8167 -82.1000 41° Northeast 148 170 3,400  Level Tampa TRACON
11:29PM 27.8500 -82.0833 24° Northeast 147 169 3,400  Level Tampa TRACON
11:31PM 27.9000 -82.0333 41° Northeast 151 174 3,400  Level Orlando TRACON
11:32PM 28.1495 -81.8602 41° Northeast  Level Estimated
11:32PM 27.9333 -82.0000 41° Northeast 151 174 3,400  Level Orlando TRACON
11:33PM 27.9667 -81.9667 41° Northeast 149 171 3,400 60 Level Orlando TRACON
11:34PM 28.0000 -81.9500 24° Northeast 149 171 3,600  Climbing Orlando TRACON
11:35PM 28.0333 -81.9000 53° Northeast 151 174 3,500 -60 Descending Orlando TRACON
11:36PM 28.0667 -81.8667 41° Northeast 152 175 3,500  Level Orlando TRACON
11:37PM 28.1000 -81.8500 24° Northeast 151 174 3,500 -60 Level Orlando TRACON
11:38PM 28.1333 -81.8167 41° Northeast 152 175 3,400 -60 Descending Orlando TRACON
11:39PM 28.1667 -81.7833 41° Northeast 148 170 3,400  Level Orlando TRACON
11:40PM 28.2000 -81.7500 41° Northeast 147 169 3,400  Level Orlando TRACON
11:41PM 28.2333 -81.7167 41° Northeast 153 176 3,400  Level Orlando TRACON
11:42PM 28.2667 -81.7000 24° Northeast 151 174 3,400  Level Orlando TRACON
11:43PM 28.3000 -81.6667 41° Northeast 150 173 3,400  Level Orlando TRACON
11:44PM 28.3333 -81.6500 24° Northeast 150 173 3,400  Level Orlando TRACON
11:45PM 28.3500 -81.6167 60° Northeast 149 171 3,400  Level Orlando TRACON
11:46PM 28.3833 -81.6000 24° Northeast 146 168 3,400  Level Orlando TRACON
11:47PM 28.4167 -81.5833 24° Northeast 150 173 3,400  Level Orlando TRACON
11:48PM 28.4667 -81.5833 360° North 149 171 3,400  Level Orlando TRACON
11:49PM 28.5000 -81.5833 360° North 149 171 3,400  Level Orlando TRACON
11:50PM 28.5500 -81.5667 16° North 146 168 3,400 -60 Level Orlando TRACON
11:51PM 28.5833 -81.5333 41° Northeast 143 165 3,300 -300 Descending Orlando TRACON
11:52PM 28.6000 -81.5000 60° Northeast 160 184 2,900 -480 Descending Orlando TRACON
11:53PM 28.6333 -81.4667 41° Northeast 163 188 2,400 -540 Descending Orlando TRACON
11:54PM 28.6833 -81.4333 30° Northeast 164 189 1,800 -360 Descending Orlando TRACON
11:55PM 28.7167 -81.4000 41° Northeast 159 183 1,700  Descending Orlando TRACON
11:56PM 28.7333 -81.3667 60° Northeast 150 173 1,800 60 Climbing Orlando TRACON